Pagrindinis puslapis
METAR-TAF:

METAR-TAF

Oro uostai :

Šeleftėjas, Švedija

platuma: 64-38N, ilguma: 021-05E, Aukštis: 49 m

Dabartinis oras

Ataskaita buvo paskelbta 18 minutes, ne 13:20 UTC
Vėjas 1 kt nuo kintamojo kryptimis
Temperatūra 0°C
Drėgmė 100%
Slėgis 995 hPa
Matomumas: 7000 m
Apsiniaukę ne aukštis 300 ft

METAR: ESNS 161320Z VRB01KT 7000 OVC003 M00/M00 Q0995

Laikas: 14:38 (13:38 UTC)

Prognozė

Ataskaita buvo paskelbta 2 valandos ir 8 minutes, ne 11:30 UTC
Prognozė galioja nuo 16 metu 12 UTC su 16 metu 21 UTC
Vėjas 5 kt iš Vakarų
Matomumas: 6000 m
Apsiniaukę ne aukštis 300 ft
sniegas
Laikinai
nuo 16 metu 12 UTC su 16 metu 19 UTC
Matomumas: 2500 m
Su prošvaistėmis ne aukštis 800 ft
rūkana
Laikinai
nuo 16 metu 19 UTC su 16 metu 21 UTC
Matomumas: 2000 m
Su prošvaistėmis ne aukštis 800 ft
sniegas

TAF: ESNS 161130Z 1612/1621 26005KT 6000 -SN OVC003 TEMPO 1612/1619 2500 BR BKN008 TEMPO 1619/1621 2000 SN BKN008

Orai ataskaitas ir orų prognozės (METAR, TAF).

turimą stotys yra geltonos ir raudonos taškus žemėlapyje.

Perkelti pele per norėdami pamatyti stoties vardą.

Tada spustelėkite, norėdami matyti oro stebėjimo ir prognozės.

Norėdami pakeisti žemėlapį: spustelėkite ant žalios mygtukų su juodo kryžiaus žemyn,; žalią mygtuką su brūkšneliu, jei norite nutolinti; arba žalių rodyklių gretimoms žemėlapius.


METAR-TAF: